createdAt,value
2023-02-27T00:00:00.096Z,48.34
2023-02-27T00:03:01.680Z,48.35
2023-02-27T00:06:03.517Z,48.32
2023-02-27T00:09:04.886Z,48.37
2023-02-27T00:12:07.123Z,48.93
2023-02-27T00:15:10.110Z,47.36
2023-02-27T00:18:11.755Z,47.27
2023-02-27T00:21:14.399Z,47.61
2023-02-27T00:24:15.809Z,48.15
2023-02-27T00:27:17.353Z,47.59
2023-02-27T00:30:19.718Z,48.01
2023-02-27T00:33:21.276Z,46.49
2023-02-27T00:36:22.789Z,46.06
2023-02-27T00:39:24.143Z,45.88
2023-02-27T00:42:26.147Z,46.52
2023-02-27T00:45:27.615Z,46.81
2023-02-27T00:48:28.926Z,48.53
2023-02-27T00:51:30.413Z,46.67
2023-02-27T00:54:32.067Z,45.92
2023-02-27T00:57:33.524Z,46.20
2023-02-27T01:00:34.993Z,47.38
2023-02-27T01:03:36.333Z,45.96
2023-02-27T01:06:37.835Z,45.76
2023-02-27T01:09:39.314Z,46.61
2023-02-27T01:12:42.109Z,47.16
2023-02-27T01:15:43.480Z,46.65
2023-02-27T01:18:44.804Z,45.95
2023-02-27T01:21:46.228Z,46.02
2023-02-27T01:24:47.564Z,46.48
2023-02-27T01:27:50.093Z,47.56
2023-02-27T01:30:51.513Z,47.81
2023-02-27T01:33:52.958Z,47.95
2023-02-27T01:36:55.318Z,47.22
2023-02-27T01:39:56.699Z,46.95
2023-02-27T01:42:59.465Z,46.37
2023-02-27T01:46:01.225Z,46.95
2023-02-27T01:49:08.848Z,48.40
2023-02-27T01:52:11.189Z,47.12
2023-02-27T01:55:14.615Z,48.29
2023-02-27T01:58:16.308Z,48.20
2023-02-27T02:01:19.286Z,50.22
2023-02-27T02:04:27.947Z,50.16
2023-02-27T02:07:29.521Z,50.47
2023-02-27T02:10:32.981Z,50.41
2023-02-27T02:13:34.506Z,50.61
2023-02-27T02:16:44.031Z,50.86
2023-02-27T02:19:48.442Z,51.08
2023-02-27T02:23:08.696Z,51.93
2023-02-27T02:26:24.880Z,51.47
2023-02-27T02:29:44.709Z,51.86
2023-02-27T02:32:49.108Z,51.23
2023-02-27T02:36:05.684Z,52.21
2023-02-27T02:39:19.040Z,52.39
2023-02-27T02:42:39.561Z,50.46
2023-02-27T02:45:49.884Z,49.52
2023-02-27T02:49:00.246Z,49.43
2023-02-27T02:52:17.041Z,48.84
2023-02-27T02:55:22.795Z,48.34
2023-02-27T02:58:27.658Z,49.38
2023-02-27T03:01:35.509Z,48.29
2023-02-27T03:04:46.503Z,48.01
2023-02-27T03:07:52.462Z,48.50
2023-02-27T03:10:57.574Z,49.63
2023-02-27T03:14:04.601Z,49.02
2023-02-27T03:17:08.616Z,50.86
2023-02-27T03:20:15.632Z,51.22
2023-02-27T03:23:19.626Z,51.51
2023-02-27T03:26:24.599Z,51.51
2023-02-27T03:29:49.424Z,51.81
2023-02-27T03:32:57.688Z,51.50
2023-02-27T03:36:02.347Z,51.57
2023-02-27T03:39:11.480Z,51.54
2023-02-27T03:42:30.998Z,52.25
2023-02-27T03:45:51.294Z,52.00
2023-02-27T03:48:52.801Z,51.67
2023-02-27T03:51:54.322Z,52.11
2023-02-27T03:55:16.282Z,51.50
2023-02-27T03:58:17.743Z,51.62
2023-02-27T04:01:19.278Z,51.90
2023-02-27T04:04:21.439Z,50.61
2023-02-27T04:08:00.260Z,51.51
2023-02-27T04:11:12.925Z,51.27
2023-02-27T04:14:29.624Z,51.48
2023-02-27T04:17:33.337Z,51.78
2023-02-27T04:20:38.837Z,51.62
2023-02-27T04:23:46.023Z,51.30
2023-02-27T04:26:53.271Z,51.69
2023-02-27T04:29:58.586Z,52.22
2023-02-27T04:33:12.583Z,52.69
2023-02-27T04:36:23.188Z,52.60
2023-02-27T04:39:27.181Z,53.29
2023-02-27T04:42:31.143Z,53.50
2023-02-27T04:45:35.360Z,53.26
2023-02-27T04:48:55.370Z,53.57
2023-02-27T04:51:58.938Z,54.02
2023-02-27T04:55:09.194Z,54.06
2023-02-27T04:58:10.491Z,54.74
2023-02-27T05:01:14.137Z,54.47
2023-02-27T05:04:18.465Z,55.11
2023-02-27T05:07:22.145Z,53.68
2023-02-27T05:10:26.405Z,53.07
2023-02-27T05:13:27.706Z,53.81
2023-02-27T05:16:33.067Z,55.30
2023-02-27T05:19:37.419Z,55.44
2023-02-27T05:22:55.222Z,55.78
2023-02-27T05:26:02.598Z,55.87
2023-02-27T05:29:04.222Z,55.54
2023-02-27T05:32:11.572Z,57.01
2023-02-27T05:35:16.182Z,56.91
2023-02-27T05:38:25.964Z,57.09
2023-02-27T05:41:43.144Z,56.92
2023-02-27T05:44:47.528Z,56.84
2023-02-27T05:47:55.548Z,56.80
2023-02-27T05:50:58.018Z,55.29
2023-02-27T05:54:02.658Z,56.23
2023-02-27T05:57:07.684Z,56.33
2023-02-27T06:00:09.318Z,56.17
2023-02-27T06:03:13.991Z,55.77
2023-02-27T06:06:17.222Z,55.41
2023-02-27T06:09:18.558Z,56.21
2023-02-27T06:12:19.871Z,55.80
2023-02-27T06:15:21.434Z,56.35
2023-02-27T06:18:22.988Z,56.56
2023-02-27T06:21:24.350Z,57.46
2023-02-27T06:24:26.660Z,57.02
2023-02-27T06:27:28.057Z,57.03
2023-02-27T06:30:29.496Z,57.51
2023-02-27T06:33:30.872Z,56.45
2023-02-27T06:36:32.316Z,56.27
2023-02-27T06:39:33.707Z,56.43
2023-02-27T06:42:35.082Z,56.40
2023-02-27T06:45:36.490Z,55.58
2023-02-27T06:48:38.040Z,55.55
2023-02-27T06:51:39.585Z,55.84
2023-02-27T06:54:41.016Z,56.37
2023-02-27T06:57:42.345Z,55.64
2023-02-27T07:00:43.838Z,55.98
2023-02-27T07:03:45.246Z,55.50
2023-02-27T07:07:32.264Z,55.71
2023-02-27T07:10:11.237Z,55.44
2023-02-27T07:13:16.043Z,55.39
2023-02-27T07:16:18.237Z,55.11
2023-02-27T07:19:19.852Z,54.89
2023-02-27T07:22:21.223Z,55.46
2023-02-27T07:25:22.973Z,54.91
2023-02-27T07:28:24.684Z,55.29
2023-02-27T07:31:28.021Z,55.83
2023-02-27T07:34:30.440Z,55.11
2023-02-27T07:37:31.766Z,55.48
2023-02-27T07:40:33.122Z,54.72
2023-02-27T07:43:34.499Z,54.79
2023-02-27T07:46:36.006Z,55.37
2023-02-27T07:49:37.501Z,54.07
2023-02-27T07:52:40.401Z,54.40
2023-02-27T07:55:41.880Z,53.75
2023-02-27T07:58:43.215Z,53.03
2023-02-27T08:01:44.592Z,52.73
2023-02-27T08:04:45.931Z,52.38
2023-02-27T08:07:47.349Z,52.28
2023-02-27T08:10:49.908Z,52.10
2023-02-27T08:14:06.662Z,51.19
2023-02-27T08:17:08.109Z,50.56
2023-02-27T08:20:11.666Z,49.73
2023-02-27T08:23:13.101Z,49.35
2023-02-27T08:26:14.808Z,49.08
2023-02-27T08:29:17.105Z,48.47
2023-02-27T08:32:18.582Z,48.12
2023-02-27T08:35:19.938Z,47.58
2023-02-27T08:38:21.515Z,47.68
2023-02-27T08:41:22.848Z,46.71
2023-02-27T08:44:24.421Z,46.82
2023-02-27T08:47:25.796Z,46.63
2023-02-27T08:50:27.179Z,45.91
2023-02-27T08:53:28.905Z,46.17
2023-02-27T08:56:30.291Z,45.83
2023-02-27T08:59:31.656Z,45.09
2023-02-27T09:02:33.185Z,45.11
2023-02-27T09:05:35.423Z,43.84
2023-02-27T09:08:36.924Z,44.55
2023-02-27T09:11:38.876Z,43.69
2023-02-27T09:14:40.323Z,42.59
2023-02-27T09:17:42.033Z,43.79
2023-02-27T09:20:43.565Z,43.32
2023-02-27T09:23:45.052Z,42.67
2023-02-27T09:26:46.914Z,42.20
2023-02-27T09:29:48.905Z,42.01
2023-02-27T09:32:50.719Z,42.96
2023-02-27T09:35:52.127Z,42.22
2023-02-27T09:38:54.020Z,41.52
2023-02-27T09:42:15.729Z,41.83
2023-02-27T09:45:39.435Z,39.69
2023-02-27T09:48:46.996Z,38.75
2023-02-27T09:51:53.316Z,35.94
2023-02-27T09:54:55.153Z,35.65
2023-02-27T09:58:16.774Z,35.67
2023-02-27T10:01:29.274Z,35.46
2023-02-27T10:04:41.027Z,35.71
2023-02-27T10:08:01.415Z,34.45
2023-02-27T10:11:07.946Z,34.39
2023-02-27T10:14:26.012Z,34.17
2023-02-27T10:17:32.017Z,34.61
2023-02-27T10:20:36.324Z,33.71
2023-02-27T10:23:44.311Z,34.13
2023-02-27T10:26:45.961Z,33.81
2023-02-27T10:29:48.060Z,34.48
2023-02-27T10:32:52.980Z,33.03
2023-02-27T10:35:55.027Z,33.65
2023-02-27T10:38:59.676Z,33.18
2023-02-27T10:42:05.447Z,33.16
2023-02-27T10:45:12.328Z,33.79
2023-02-27T10:48:14.810Z,32.64
2023-02-27T10:51:24.239Z,33.52
2023-02-27T10:54:26.085Z,32.43
2023-02-27T10:57:30.398Z,32.28
2023-02-27T11:00:33.675Z,32.71
2023-02-27T11:03:38.672Z,31.85
2023-02-27T11:06:44.404Z,32.49
2023-02-27T11:09:58.584Z,31.48
2023-02-27T11:13:04.963Z,31.32
2023-02-27T11:16:24.667Z,31.61
2023-02-27T11:19:36.699Z,32.35
2023-02-27T11:22:38.116Z,31.83
2023-02-27T11:25:39.592Z,32.04
2023-02-27T11:28:41.852Z,30.33
2023-02-27T11:31:46.309Z,31.74
2023-02-27T11:34:49.137Z,30.56
2023-02-27T11:37:51.726Z,30.63
2023-02-27T11:41:11.770Z,30.33
2023-02-27T11:44:17.510Z,30.79
2023-02-27T11:47:48.069Z,30.61
2023-02-27T11:50:51.901Z,30.82
2023-02-27T11:54:06.867Z,30.14
2023-02-27T11:57:11.434Z,29.05
2023-02-27T12:00:31.671Z,30.13
2023-02-27T12:03:40.730Z,29.52
2023-02-27T12:06:46.776Z,30.62
2023-02-27T12:09:48.038Z,31.01
2023-02-27T12:12:58.853Z,31.76
2023-02-27T12:16:02.898Z,33.15
2023-02-27T12:19:13.597Z,33.67
2023-02-27T12:22:15.074Z,32.39
2023-02-27T12:25:25.430Z,31.59
2023-02-27T12:28:26.804Z,30.80
2023-02-27T12:31:34.206Z,31.41
2023-02-27T12:34:41.521Z,29.95
2023-02-27T12:37:45.258Z,31.02
2023-02-27T12:40:58.881Z,30.98
2023-02-27T12:44:16.117Z,31.26
2023-02-27T12:47:29.684Z,31.42
2023-02-27T12:50:44.309Z,31.22
2023-02-27T12:54:04.068Z,31.35
2023-02-27T12:57:08.137Z,32.22
2023-02-27T13:00:09.702Z,32.04
2023-02-27T13:03:43.727Z,31.62
2023-02-27T13:06:49.908Z,31.06
2023-02-27T13:09:56.980Z,31.70
2023-02-27T13:13:09.763Z,31.10
2023-02-27T13:16:20.868Z,30.57
2023-02-27T13:19:52.992Z,31.11
2023-02-27T13:23:03.027Z,30.94
2023-02-27T13:26:08.689Z,30.98
2023-02-27T13:29:18.124Z,31.43
2023-02-27T13:32:36.518Z,30.61
2023-02-27T13:36:05.102Z,30.63
2023-02-27T13:39:26.426Z,31.37
2023-02-27T13:42:27.794Z,31.50
2023-02-27T13:45:48.779Z,31.15
2023-02-27T13:48:53.638Z,31.70
2023-02-27T13:51:58.583Z,31.30
2023-02-27T13:55:11.321Z,31.27
2023-02-27T13:58:18.160Z,32.01
2023-02-27T14:01:24.824Z,31.35
2023-02-27T14:04:28.593Z,30.71
2023-02-27T14:07:33.780Z,31.80
2023-02-27T14:10:37.157Z,31.24
2023-02-27T14:13:50.970Z,31.45
2023-02-27T14:16:53.058Z,31.21
2023-02-27T14:19:56.941Z,30.76
2023-02-27T14:23:16.674Z,31.08
2023-02-27T14:26:20.595Z,31.27
2023-02-27T14:29:31.020Z,31.76
2023-02-27T14:32:34.166Z,32.06
2023-02-27T14:35:35.815Z,31.42
2023-02-27T14:38:38.511Z,31.81
2023-02-27T14:41:59.788Z,31.66
2023-02-27T14:45:01.562Z,30.95
2023-02-27T14:48:03.223Z,31.46
2023-02-27T14:51:04.881Z,32.49
2023-02-27T14:54:12.626Z,32.39
2023-02-27T14:57:16.505Z,32.30
2023-02-27T15:00:36.809Z,32.39
2023-02-27T15:03:40.104Z,33.19
2023-02-27T15:06:46.166Z,32.78
2023-02-27T15:09:49.165Z,32.77
2023-02-27T15:12:52.351Z,32.82
2023-02-27T15:16:16.656Z,32.75
2023-02-27T15:19:22.778Z,33.44
2023-02-27T15:22:38.560Z,33.66
2023-02-27T15:25:41.085Z,33.81
2023-02-27T15:28:42.497Z,33.82
2023-02-27T15:31:45.867Z,33.23
2023-02-27T15:34:47.491Z,33.30
2023-02-27T15:37:52.632Z,36.10
2023-02-27T15:40:55.720Z,37.02
2023-02-27T15:43:57.274Z,37.44
2023-02-27T15:47:05.049Z,37.63
2023-02-27T15:50:10.489Z,38.20
2023-02-27T15:53:17.792Z,37.78
2023-02-27T15:56:21.839Z,38.07
2023-02-27T15:59:25.266Z,38.30
2023-02-27T16:02:46.924Z,38.25
2023-02-27T16:05:51.096Z,39.22
2023-02-27T16:08:54.794Z,38.58
2023-02-27T16:13:31.083Z,39.05
2023-02-27T16:16:38.729Z,38.95
2023-02-27T16:19:40.368Z,39.03
2023-02-27T16:23:05.130Z,38.62
2023-02-27T16:26:17.941Z,36.97
2023-02-27T16:29:22.885Z,37.15
2023-02-27T16:32:24.421Z,37.04
2023-02-27T16:35:26.667Z,36.31
2023-02-27T16:38:28.378Z,35.73
2023-02-27T16:41:30.075Z,35.93
2023-02-27T16:44:31.532Z,36.08
2023-02-27T16:47:33.201Z,36.61
2023-02-27T16:50:39.764Z,36.43
2023-02-27T16:53:41.272Z,37.08
2023-02-27T16:56:44.568Z,37.34
2023-02-27T16:59:46.296Z,37.49
2023-02-27T17:02:48.270Z,36.72
2023-02-27T17:05:50.072Z,36.31
2023-02-27T17:08:51.678Z,36.16
2023-02-27T17:11:54.838Z,36.23
2023-02-27T17:14:56.386Z,36.35
2023-02-27T17:17:57.842Z,36.27
2023-02-27T17:21:00.650Z,37.04
2023-02-27T17:24:02.634Z,36.45
2023-02-27T17:27:04.495Z,37.34
2023-02-27T17:30:06.881Z,37.77
2023-02-27T17:33:08.212Z,37.62
2023-02-27T17:36:10.772Z,37.40
2023-02-27T17:39:14.132Z,37.50
2023-02-27T17:42:18.455Z,36.96
2023-02-27T17:45:21.090Z,36.27
2023-02-27T17:48:22.477Z,36.42
2023-02-27T17:51:24.109Z,36.72
2023-02-27T17:54:25.536Z,36.00
2023-02-27T17:57:26.954Z,35.57
2023-02-27T18:00:28.365Z,35.91
2023-02-27T18:03:29.853Z,35.51
2023-02-27T18:06:31.544Z,35.48
2023-02-27T18:09:33.311Z,35.81
2023-02-27T18:12:35.808Z,35.47
2023-02-27T18:15:37.315Z,35.55
2023-02-27T18:18:40.610Z,34.47
2023-02-27T18:21:42.748Z,35.04
2023-02-27T18:24:44.206Z,35.57
2023-02-27T18:27:45.874Z,35.68
2023-02-27T18:30:47.408Z,35.25
2023-02-27T18:33:48.879Z,35.18
2023-02-27T18:36:51.872Z,35.54
2023-02-27T18:39:53.397Z,35.36
2023-02-27T18:42:55.334Z,35.60
2023-02-27T18:45:57.009Z,35.35
2023-02-27T18:48:58.997Z,35.51
2023-02-27T18:52:01.012Z,36.14
2023-02-27T18:55:02.530Z,35.79
2023-02-27T18:58:06.065Z,35.56
2023-02-27T19:01:08.341Z,35.74
2023-02-27T19:04:10.017Z,35.28
2023-02-27T19:07:11.944Z,35.43
2023-02-27T19:10:13.705Z,35.74
2023-02-27T19:13:15.131Z,35.47
2023-02-27T19:16:16.805Z,35.11
2023-02-27T19:19:18.881Z,35.04
2023-02-27T19:22:20.416Z,36.36
2023-02-27T19:25:22.177Z,36.02
2023-02-27T19:28:24.095Z,34.89
2023-02-27T19:31:26.524Z,35.33
2023-02-27T19:34:28.008Z,35.15
2023-02-27T19:37:30.378Z,35.54
2023-02-27T19:40:31.970Z,35.89
2023-02-27T19:43:37.572Z,35.38
2023-02-27T19:46:41.354Z,36.65
2023-02-27T19:49:42.885Z,35.80
2023-02-27T19:52:44.460Z,35.93
2023-02-27T19:55:45.968Z,35.23
2023-02-27T19:58:48.157Z,35.02
2023-02-27T20:01:49.593Z,35.43
2023-02-27T20:04:51.050Z,36.33
2023-02-27T20:07:52.925Z,36.10
2023-02-27T20:10:59.209Z,35.36
2023-02-27T20:14:01.437Z,34.93
2023-02-27T20:17:03.092Z,34.97
2023-02-27T20:20:05.722Z,36.01
2023-02-27T20:23:07.107Z,36.06
2023-02-27T20:26:17.219Z,35.97
2023-02-27T20:29:21.798Z,35.72
2023-02-27T20:32:24.305Z,35.12
2023-02-27T20:35:26.033Z,34.90
2023-02-27T20:38:29.129Z,35.01
2023-02-27T20:41:31.304Z,34.80
2023-02-27T20:44:32.978Z,35.31
2023-02-27T20:47:34.601Z,34.44
2023-02-27T20:50:36.536Z,34.89
2023-02-27T20:53:39.812Z,34.58
2023-02-27T20:56:42.209Z,35.03
2023-02-27T20:59:43.568Z,34.63
2023-02-27T21:02:45.359Z,34.70
2023-02-27T21:05:48.465Z,34.62
2023-02-27T21:08:53.732Z,34.59
2023-02-27T21:11:56.050Z,34.92
2023-02-27T21:14:57.448Z,34.87
2023-02-27T21:17:58.848Z,35.09
2023-02-27T21:21:09.281Z,34.79
2023-02-27T21:24:10.878Z,35.24
2023-02-27T21:27:12.278Z,35.77
2023-02-27T21:30:13.874Z,35.21
2023-02-27T21:33:15.319Z,35.39
2023-02-27T21:36:17.203Z,35.59
2023-02-27T21:39:21.691Z,36.57
2023-02-27T21:42:24.032Z,36.04
2023-02-27T21:45:25.547Z,35.91
2023-02-27T21:48:26.975Z,35.57
2023-02-27T21:51:39.498Z,36.14
2023-02-27T21:54:41.685Z,37.43
2023-02-27T21:57:43.122Z,37.29
2023-02-27T22:00:44.934Z,38.16
2023-02-27T22:03:47.557Z,38.30
2023-02-27T22:06:50.823Z,38.18
2023-02-27T22:09:52.408Z,37.72
2023-02-27T22:12:53.832Z,38.22
2023-02-27T22:15:55.263Z,37.65
2023-02-27T22:18:56.724Z,38.39
2023-02-27T22:21:58.156Z,37.81
2023-02-27T22:24:59.608Z,38.94
2023-02-27T22:28:01.487Z,38.25
2023-02-27T22:31:14.547Z,38.91
2023-02-27T22:34:18.495Z,37.92
2023-02-27T22:37:19.948Z,38.99
2023-02-27T22:40:21.403Z,38.45
2023-02-27T22:43:22.892Z,39.29
2023-02-27T22:46:36.346Z,38.86
2023-02-27T22:49:39.056Z,39.56
2023-02-27T22:52:40.465Z,39.41
2023-02-27T22:55:45.312Z,39.66
2023-02-27T22:58:47.966Z,39.82
2023-02-27T23:01:50.400Z,39.36
2023-02-27T23:04:51.894Z,40.74
2023-02-27T23:07:53.324Z,41.27
2023-02-27T23:10:54.873Z,40.76
2023-02-27T23:13:56.823Z,40.45
2023-02-27T23:17:20.931Z,40.65
2023-02-27T23:20:23.106Z,40.42
2023-02-27T23:23:24.889Z,40.94
2023-02-27T23:26:29.192Z,42.30
2023-02-27T23:29:30.649Z,41.72
2023-02-27T23:32:43.448Z,41.32
2023-02-27T23:35:45.168Z,41.35
2023-02-27T23:38:47.275Z,41.61
2023-02-27T23:41:49.430Z,42.62
2023-02-27T23:45:09.592Z,42.36
2023-02-27T23:48:11.173Z,43.17
2023-02-27T23:51:12.602Z,42.21
2023-02-27T23:54:14.196Z,41.47
2023-02-27T23:57:15.633Z,43.64
